sensor_id;sensor_type;location;lat;lon;timestamp;P1;durP1;ratioP1;P2;durP2;ratioP2
8871;SDS011;4472;52.092;9.820;2022-12-18T00:00:21;17.53;;;10.73;;
8871;SDS011;4472;52.092;9.820;2022-12-18T00:03:09;16.53;;;10.33;;
8871;SDS011;4472;52.092;9.820;2022-12-18T00:05:58;21.93;;;11.27;;
8871;SDS011;4472;52.092;9.820;2022-12-18T00:08:45;19.57;;;11.07;;
8871;SDS011;4472;52.092;9.820;2022-12-18T00:11:33;19.60;;;10.67;;
8871;SDS011;4472;52.092;9.820;2022-12-18T00:14:20;23.10;;;11.67;;
8871;SDS011;4472;52.092;9.820;2022-12-18T00:17:08;21.27;;;11.30;;
8871;SDS011;4472;52.092;9.820;2022-12-18T00:19:55;23.27;;;11.87;;
8871;SDS011;4472;52.092;9.820;2022-12-18T00:22:44;21.93;;;12.97;;
8871;SDS011;4472;52.092;9.820;2022-12-18T00:25:32;25.13;;;13.50;;
8871;SDS011;4472;52.092;9.820;2022-12-18T00:28:20;28.60;;;13.40;;
8871;SDS011;4472;52.092;9.820;2022-12-18T00:31:08;28.60;;;13.90;;
8871;SDS011;4472;52.092;9.820;2022-12-18T00:33:56;30.50;;;14.57;;
8871;SDS011;4472;52.092;9.820;2022-12-18T00:36:44;27.20;;;14.03;;
8871;SDS011;4472;52.092;9.820;2022-12-18T00:39:33;26.63;;;14.20;;
8871;SDS011;4472;52.092;9.820;2022-12-18T00:42:20;27.90;;;15.27;;
8871;SDS011;4472;52.092;9.820;2022-12-18T00:45:26;29.40;;;15.53;;
8871;SDS011;4472;52.092;9.820;2022-12-18T00:48:14;28.43;;;14.60;;
8871;SDS011;4472;52.092;9.820;2022-12-18T00:51:01;27.70;;;14.83;;
8871;SDS011;4472;52.092;9.820;2022-12-18T00:53:49;30.83;;;16.00;;
8871;SDS011;4472;52.092;9.820;2022-12-18T00:56:38;31.90;;;15.97;;
8871;SDS011;4472;52.092;9.820;2022-12-18T00:59:26;36.37;;;18.23;;
8871;SDS011;4472;52.092;9.820;2022-12-18T01:02:13;46.10;;;20.00;;
8871;SDS011;4472;52.092;9.820;2022-12-18T01:05:01;46.73;;;21.07;;
8871;SDS011;4472;52.092;9.820;2022-12-18T01:07:48;38.13;;;18.23;;
8871;SDS011;4472;52.092;9.820;2022-12-18T01:10:36;35.33;;;17.87;;
8871;SDS011;4472;52.092;9.820;2022-12-18T01:13:24;29.23;;;14.10;;
8871;SDS011;4472;52.092;9.820;2022-12-18T01:16:12;24.57;;;12.27;;
8871;SDS011;4472;52.092;9.820;2022-12-18T01:18:59;20.83;;;10.67;;
8871;SDS011;4472;52.092;9.820;2022-12-18T01:21:47;19.70;;;9.70;;
8871;SDS011;4472;52.092;9.820;2022-12-18T01:24:34;18.13;;;9.47;;
8871;SDS011;4472;52.092;9.820;2022-12-18T01:27:25;18.40;;;10.10;;
8871;SDS011;4472;52.092;9.820;2022-12-18T01:30:14;18.77;;;10.07;;
8871;SDS011;4472;52.092;9.820;2022-12-18T01:33:01;19.77;;;9.77;;
8871;SDS011;4472;52.092;9.820;2022-12-18T01:35:50;18.27;;;10.17;;
8871;SDS011;4472;52.092;9.820;2022-12-18T01:38:38;19.20;;;9.70;;
8871;SDS011;4472;52.092;9.820;2022-12-18T01:41:26;18.10;;;10.03;;
8871;SDS011;4472;52.092;9.820;2022-12-18T01:47:42;16.97;;;9.20;;
8871;SDS011;4472;52.092;9.820;2022-12-18T01:50:31;17.43;;;9.90;;
8871;SDS011;4472;52.092;9.820;2022-12-18T01:53:20;21.07;;;10.50;;
8871;SDS011;4472;52.092;9.820;2022-12-18T01:56:10;19.67;;;9.87;;
8871;SDS011;4472;52.092;9.820;2022-12-18T01:58:59;20.93;;;10.10;;
8871;SDS011;4472;52.092;9.820;2022-12-18T02:01:48;19.43;;;10.57;;
8871;SDS011;4472;52.092;9.820;2022-12-18T02:04:37;23.50;;;12.00;;
8871;SDS011;4472;52.092;9.820;2022-12-18T02:07:26;28.87;;;15.17;;
8871;SDS011;4472;52.092;9.820;2022-12-18T02:10:18;19.50;;;11.03;;
8871;SDS011;4472;52.092;9.820;2022-12-18T02:13:08;18.03;;;11.13;;
8871;SDS011;4472;52.092;9.820;2022-12-18T02:16:00;20.67;;;10.73;;
8871;SDS011;4472;52.092;9.820;2022-12-18T02:18:50;19.27;;;10.37;;
8871;SDS011;4472;52.092;9.820;2022-12-18T02:21:44;19.93;;;10.40;;
8871;SDS011;4472;52.092;9.820;2022-12-18T02:24:33;17.47;;;10.00;;
8871;SDS011;4472;52.092;9.820;2022-12-18T02:27:23;17.47;;;9.33;;
8871;SDS011;4472;52.092;9.820;2022-12-18T02:30:11;17.30;;;9.63;;
8871;SDS011;4472;52.092;9.820;2022-12-18T02:32:58;23.00;;;9.67;;
8871;SDS011;4472;52.092;9.820;2022-12-18T02:35:48;15.37;;;9.13;;
8871;SDS011;4472;52.092;9.820;2022-12-18T02:38:36;14.73;;;8.90;;
8871;SDS011;4472;52.092;9.820;2022-12-18T02:41:24;15.83;;;8.83;;
8871;SDS011;4472;52.092;9.820;2022-12-18T02:44:14;15.80;;;8.47;;
8871;SDS011;4472;52.092;9.820;2022-12-18T02:47:01;15.53;;;8.60;;
8871;SDS011;4472;52.092;9.820;2022-12-18T02:49:52;15.27;;;8.27;;
8871;SDS011;4472;52.092;9.820;2022-12-18T02:52:41;15.73;;;7.80;;
8871;SDS011;4472;52.092;9.820;2022-12-18T02:55:35;16.63;;;8.23;;
8871;SDS011;4472;52.092;9.820;2022-12-18T02:58:26;14.53;;;8.07;;
8871;SDS011;4472;52.092;9.820;2022-12-18T03:01:19;13.63;;;7.67;;
8871;SDS011;4472;52.092;9.820;2022-12-18T03:04:09;13.63;;;8.07;;
8871;SDS011;4472;52.092;9.820;2022-12-18T03:07:00;14.03;;;7.93;;
8871;SDS011;4472;52.092;9.820;2022-12-18T03:09:49;16.70;;;9.03;;
8871;SDS011;4472;52.092;9.820;2022-12-18T03:12:40;15.37;;;8.10;;
8871;SDS011;4472;52.092;9.820;2022-12-18T03:15:29;17.73;;;8.70;;
8871;SDS011;4472;52.092;9.820;2022-12-18T03:18:20;13.83;;;7.90;;
8871;SDS011;4472;52.092;9.820;2022-12-18T03:21:08;14.87;;;8.03;;
8871;SDS011;4472;52.092;9.820;2022-12-18T03:23:56;13.07;;;7.97;;
8871;SDS011;4472;52.092;9.820;2022-12-18T03:26:44;13.70;;;8.37;;
8871;SDS011;4472;52.092;9.820;2022-12-18T03:29:34;14.57;;;8.13;;
8871;SDS011;4472;52.092;9.820;2022-12-18T03:32:23;12.87;;;8.07;;
8871;SDS011;4472;52.092;9.820;2022-12-18T03:35:14;14.70;;;8.47;;
8871;SDS011;4472;52.092;9.820;2022-12-18T03:38:03;12.80;;;7.90;;
8871;SDS011;4472;52.092;9.820;2022-12-18T03:40:53;13.03;;;8.00;;
8871;SDS011;4472;52.092;9.820;2022-12-18T03:43:45;14.67;;;8.60;;
8871;SDS011;4472;52.092;9.820;2022-12-18T03:46:36;14.50;;;7.80;;
8871;SDS011;4472;52.092;9.820;2022-12-18T03:49:30;13.57;;;7.37;;
8871;SDS011;4472;52.092;9.820;2022-12-18T03:52:22;15.47;;;8.50;;
8871;SDS011;4472;52.092;9.820;2022-12-18T03:55:11;13.53;;;8.47;;
8871;SDS011;4472;52.092;9.820;2022-12-18T03:57:59;12.20;;;7.67;;
8871;SDS011;4472;52.092;9.820;2022-12-18T04:00:48;12.67;;;7.67;;
8871;SDS011;4472;52.092;9.820;2022-12-18T04:03:36;12.90;;;7.87;;
8871;SDS011;4472;52.092;9.820;2022-12-18T04:06:25;11.90;;;6.90;;
8871;SDS011;4472;52.092;9.820;2022-12-18T04:09:14;14.00;;;7.97;;
8871;SDS011;4472;52.092;9.820;2022-12-18T04:12:02;11.80;;;7.90;;
8871;SDS011;4472;52.092;9.820;2022-12-18T04:14:49;13.07;;;7.13;;
8871;SDS011;4472;52.092;9.820;2022-12-18T04:17:37;13.53;;;8.10;;
8871;SDS011;4472;52.092;9.820;2022-12-18T04:20:25;13.63;;;7.80;;
8871;SDS011;4472;52.092;9.820;2022-12-18T04:23:12;13.90;;;8.30;;
8871;SDS011;4472;52.092;9.820;2022-12-18T04:26:01;15.40;;;8.53;;
8871;SDS011;4472;52.092;9.820;2022-12-18T04:28:49;14.57;;;8.70;;
8871;SDS011;4472;52.092;9.820;2022-12-18T04:31:36;13.87;;;8.63;;
8871;SDS011;4472;52.092;9.820;2022-12-18T04:34:24;15.10;;;8.03;;
8871;SDS011;4472;52.092;9.820;2022-12-18T04:37:11;12.20;;;8.70;;
8871;SDS011;4472;52.092;9.820;2022-12-18T04:39:59;16.63;;;7.47;;
8871;SDS011;4472;52.092;9.820;2022-12-18T04:42:47;14.53;;;7.70;;
8871;SDS011;4472;52.092;9.820;2022-12-18T04:45:35;17.63;;;8.80;;
8871;SDS011;4472;52.092;9.820;2022-12-18T04:48:22;14.83;;;8.97;;
8871;SDS011;4472;52.092;9.820;2022-12-18T04:51:10;15.23;;;8.77;;
8871;SDS011;4472;52.092;9.820;2022-12-18T04:53:57;14.27;;;8.10;;
8871;SDS011;4472;52.092;9.820;2022-12-18T04:56:45;17.80;;;8.63;;
8871;SDS011;4472;52.092;9.820;2022-12-18T04:59:33;16.13;;;8.37;;
8871;SDS011;4472;52.092;9.820;2022-12-18T05:02:21;13.90;;;8.27;;
8871;SDS011;4472;52.092;9.820;2022-12-18T05:05:09;15.30;;;8.90;;
8871;SDS011;4472;52.092;9.820;2022-12-18T05:07:56;15.17;;;8.90;;
8871;SDS011;4472;52.092;9.820;2022-12-18T05:10:44;16.47;;;8.70;;
8871;SDS011;4472;52.092;9.820;2022-12-18T05:13:31;13.70;;;8.17;;
8871;SDS011;4472;52.092;9.820;2022-12-18T05:16:20;16.07;;;8.93;;
8871;SDS011;4472;52.092;9.820;2022-12-18T05:19:08;18.33;;;9.57;;
8871;SDS011;4472;52.092;9.820;2022-12-18T05:21:55;18.67;;;9.97;;
8871;SDS011;4472;52.092;9.820;2022-12-18T05:24:43;15.17;;;9.70;;
8871;SDS011;4472;52.092;9.820;2022-12-18T05:27:30;20.73;;;10.33;;
8871;SDS011;4472;52.092;9.820;2022-12-18T05:30:18;17.23;;;10.83;;
8871;SDS011;4472;52.092;9.820;2022-12-18T05:33:07;21.07;;;11.03;;
8871;SDS011;4472;52.092;9.820;2022-12-18T05:35:55;22.27;;;11.70;;
8871;SDS011;4472;52.092;9.820;2022-12-18T05:38:42;25.20;;;12.20;;
8871;SDS011;4472;52.092;9.820;2022-12-18T05:41:30;22.53;;;12.23;;
8871;SDS011;4472;52.092;9.820;2022-12-18T05:44:17;23.57;;;12.50;;
8871;SDS011;4472;52.092;9.820;2022-12-18T05:47:05;20.73;;;11.73;;
8871;SDS011;4472;52.092;9.820;2022-12-18T05:49:54;27.40;;;13.30;;
8871;SDS011;4472;52.092;9.820;2022-12-18T05:52:41;23.60;;;12.83;;
8871;SDS011;4472;52.092;9.820;2022-12-18T05:55:29;23.13;;;13.03;;
8871;SDS011;4472;52.092;9.820;2022-12-18T05:58:16;25.43;;;12.83;;
8871;SDS011;4472;52.092;9.820;2022-12-18T06:01:08;20.47;;;12.07;;
8871;SDS011;4472;52.092;9.820;2022-12-18T06:03:55;23.20;;;12.90;;
8871;SDS011;4472;52.092;9.820;2022-12-18T06:06:44;26.17;;;13.77;;
8871;SDS011;4472;52.092;9.820;2022-12-18T06:09:32;26.70;;;14.30;;
8871;SDS011;4472;52.092;9.820;2022-12-18T06:12:19;29.40;;;14.60;;
8871;SDS011;4472;52.092;9.820;2022-12-18T06:15:07;36.87;;;18.50;;
8871;SDS011;4472;52.092;9.820;2022-12-18T06:17:55;33.07;;;16.00;;
8871;SDS011;4472;52.092;9.820;2022-12-18T06:20:42;16.67;;;9.80;;
8871;SDS011;4472;52.092;9.820;2022-12-18T06:23:31;13.27;;;7.23;;
8871;SDS011;4472;52.092;9.820;2022-12-18T06:26:18;19.50;;;9.43;;
8871;SDS011;4472;52.092;9.820;2022-12-18T06:29:06;14.33;;;7.83;;
8871;SDS011;4472;52.092;9.820;2022-12-18T06:31:53;15.50;;;7.67;;
8871;SDS011;4472;52.092;9.820;2022-12-18T06:34:41;17.67;;;9.67;;
8871;SDS011;4472;52.092;9.820;2022-12-18T06:37:28;15.43;;;8.67;;
8871;SDS011;4472;52.092;9.820;2022-12-18T06:40:19;46.77;;;18.57;;
8871;SDS011;4472;52.092;9.820;2022-12-18T06:43:06;21.00;;;10.07;;
8871;SDS011;4472;52.092;9.820;2022-12-18T06:45:59;11.97;;;7.23;;
8871;SDS011;4472;52.092;9.820;2022-12-18T06:48:47;13.47;;;6.80;;
8871;SDS011;4472;52.092;9.820;2022-12-18T06:51:36;11.30;;;6.47;;
8871;SDS011;4472;52.092;9.820;2022-12-18T06:54:23;18.83;;;8.70;;
8871;SDS011;4472;52.092;9.820;2022-12-18T06:57:12;13.13;;;7.17;;
8871;SDS011;4472;52.092;9.820;2022-12-18T07:00:00;13.60;;;7.03;;
8871;SDS011;4472;52.092;9.820;2022-12-18T07:02:48;16.17;;;8.00;;
8871;SDS011;4472;52.092;9.820;2022-12-18T07:05:39;11.67;;;6.70;;
8871;SDS011;4472;52.092;9.820;2022-12-18T07:08:27;13.20;;;5.90;;
8871;SDS011;4472;52.092;9.820;2022-12-18T07:11:15;12.13;;;6.17;;
8871;SDS011;4472;52.092;9.820;2022-12-18T07:14:05;17.03;;;8.37;;
8871;SDS011;4472;52.092;9.820;2022-12-18T07:16:52;12.67;;;7.27;;
8871;SDS011;4472;52.092;9.820;2022-12-18T07:19:40;16.13;;;6.93;;
8871;SDS011;4472;52.092;9.820;2022-12-18T07:22:27;14.07;;;6.90;;
8871;SDS011;4472;52.092;9.820;2022-12-18T07:25:15;12.07;;;6.07;;
8871;SDS011;4472;52.092;9.820;2022-12-18T07:28:02;12.47;;;6.80;;
8871;SDS011;4472;52.092;9.820;2022-12-18T07:30:51;11.87;;;6.80;;
8871;SDS011;4472;52.092;9.820;2022-12-18T07:33:39;11.17;;;6.37;;
8871;SDS011;4472;52.092;9.820;2022-12-18T07:36:26;10.17;;;6.20;;
8871;SDS011;4472;52.092;9.820;2022-12-18T07:39:14;12.80;;;6.53;;
8871;SDS011;4472;52.092;9.820;2022-12-18T07:42:01;12.80;;;7.80;;
8871;SDS011;4472;52.092;9.820;2022-12-18T07:45:06;15.97;;;6.80;;
8871;SDS011;4472;52.092;9.820;2022-12-18T07:47:55;19.57;;;9.07;;
8871;SDS011;4472;52.092;9.820;2022-12-18T07:50:43;28.27;;;13.23;;
8871;SDS011;4472;52.092;9.820;2022-12-18T07:53:30;35.40;;;16.43;;
8871;SDS011;4472;52.092;9.820;2022-12-18T07:56:19;34.47;;;17.00;;
8871;SDS011;4472;52.092;9.820;2022-12-18T07:59:06;23.37;;;12.17;;
8871;SDS011;4472;52.092;9.820;2022-12-18T08:01:54;17.90;;;10.70;;
8871;SDS011;4472;52.092;9.820;2022-12-18T08:04:43;11.57;;;6.80;;
8871;SDS011;4472;52.092;9.820;2022-12-18T08:07:30;8.83;;;5.93;;
8871;SDS011;4472;52.092;9.820;2022-12-18T08:10:18;9.33;;;6.03;;
8871;SDS011;4472;52.092;9.820;2022-12-18T08:13:05;12.40;;;6.63;;
8871;SDS011;4472;52.092;9.820;2022-12-18T08:15:56;10.77;;;6.10;;
8871;SDS011;4472;52.092;9.820;2022-12-18T08:18:44;16.10;;;8.07;;
8871;SDS011;4472;52.092;9.820;2022-12-18T08:21:33;10.07;;;6.33;;
8871;SDS011;4472;52.092;9.820;2022-12-18T08:24:20;11.77;;;6.90;;
8871;SDS011;4472;52.092;9.820;2022-12-18T08:27:08;12.47;;;6.43;;
8871;SDS011;4472;52.092;9.820;2022-12-18T08:29:55;11.23;;;6.83;;
8871;SDS011;4472;52.092;9.820;2022-12-18T08:32:43;13.83;;;7.07;;
8871;SDS011;4472;52.092;9.820;2022-12-18T08:35:30;11.83;;;7.70;;
8871;SDS011;4472;52.092;9.820;2022-12-18T08:38:22;13.63;;;7.23;;
8871;SDS011;4472;52.092;9.820;2022-12-18T08:41:11;12.03;;;6.93;;
8871;SDS011;4472;52.092;9.820;2022-12-18T08:43:58;14.30;;;7.57;;
8871;SDS011;4472;52.092;9.820;2022-12-18T08:47:03;9.40;;;5.17;;
8871;SDS011;4472;52.092;9.820;2022-12-18T08:49:51;10.20;;;5.33;;
8871;SDS011;4472;52.092;9.820;2022-12-18T08:52:38;12.50;;;7.30;;
8871;SDS011;4472;52.092;9.820;2022-12-18T08:55:27;10.27;;;5.03;;
8871;SDS011;4472;52.092;9.820;2022-12-18T08:58:15;9.37;;;4.83;;
8871;SDS011;4472;52.092;9.820;2022-12-18T09:01:03;11.57;;;5.33;;
8871;SDS011;4472;52.092;9.820;2022-12-18T09:03:50;10.97;;;5.57;;
8871;SDS011;4472;52.092;9.820;2022-12-18T09:06:38;8.13;;;4.70;;
8871;SDS011;4472;52.092;9.820;2022-12-18T09:09:25;7.40;;;5.67;;
8871;SDS011;4472;52.092;9.820;2022-12-18T09:12:14;11.23;;;5.13;;
8871;SDS011;4472;52.092;9.820;2022-12-18T09:15:02;8.37;;;5.10;;
8871;SDS011;4472;52.092;9.820;2022-12-18T09:17:50;9.33;;;5.57;;
8871;SDS011;4472;52.092;9.820;2022-12-18T09:20:38;9.27;;;5.70;;
8871;SDS011;4472;52.092;9.820;2022-12-18T09:23:25;7.90;;;4.63;;
8871;SDS011;4472;52.092;9.820;2022-12-18T09:26:13;7.13;;;5.20;;
8871;SDS011;4472;52.092;9.820;2022-12-18T09:29:02;7.33;;;4.63;;
8871;SDS011;4472;52.092;9.820;2022-12-18T09:31:49;5.30;;;4.10;;
8871;SDS011;4472;52.092;9.820;2022-12-18T09:34:37;6.50;;;3.77;;
8871;SDS011;4472;52.092;9.820;2022-12-18T09:37:24;5.70;;;4.30;;
8871;SDS011;4472;52.092;9.820;2022-12-18T09:40:13;6.00;;;3.90;;
8871;SDS011;4472;52.092;9.820;2022-12-18T09:43:03;9.00;;;4.20;;
8871;SDS011;4472;52.092;9.820;2022-12-18T09:45:53;6.20;;;3.97;;
8871;SDS011;4472;52.092;9.820;2022-12-18T09:48:42;5.30;;;3.53;;
8871;SDS011;4472;52.092;9.820;2022-12-18T09:51:32;7.20;;;3.73;;
8871;SDS011;4472;52.092;9.820;2022-12-18T09:54:22;4.33;;;3.90;;
8871;SDS011;4472;52.092;9.820;2022-12-18T09:57:12;4.77;;;3.80;;
8871;SDS011;4472;52.092;9.820;2022-12-18T10:00:04;5.63;;;3.73;;
8871;SDS011;4472;52.092;9.820;2022-12-18T10:02:56;6.30;;;3.60;;
8871;SDS011;4472;52.092;9.820;2022-12-18T10:05:48;6.03;;;4.17;;
8871;SDS011;4472;52.092;9.820;2022-12-18T10:08:38;9.83;;;4.90;;
8871;SDS011;4472;52.092;9.820;2022-12-18T10:11:32;8.87;;;5.10;;
8871;SDS011;4472;52.092;9.820;2022-12-18T10:14:26;8.37;;;4.83;;
8871;SDS011;4472;52.092;9.820;2022-12-18T10:17:18;8.90;;;4.07;;
8871;SDS011;4472;52.092;9.820;2022-12-18T10:20:12;6.87;;;3.67;;
8871;SDS011;4472;52.092;9.820;2022-12-18T10:23:01;4.80;;;3.40;;
8871;SDS011;4472;52.092;9.820;2022-12-18T10:25:53;7.23;;;3.70;;
8871;SDS011;4472;52.092;9.820;2022-12-18T10:28:42;4.87;;;3.40;;
8871;SDS011;4472;52.092;9.820;2022-12-18T10:31:30;3.83;;;3.03;;
8871;SDS011;4472;52.092;9.820;2022-12-18T10:34:18;3.73;;;3.10;;
8871;SDS011;4472;52.092;9.820;2022-12-18T10:37:09;4.97;;;3.47;;
8871;SDS011;4472;52.092;9.820;2022-12-18T10:40:06;5.87;;;3.00;;
8871;SDS011;4472;52.092;9.820;2022-12-18T10:43:02;5.33;;;3.47;;
8871;SDS011;4472;52.092;9.820;2022-12-18T10:46:00;6.50;;;3.30;;
8871;SDS011;4472;52.092;9.820;2022-12-18T10:48:49;8.40;;;3.63;;
8871;SDS011;4472;52.092;9.820;2022-12-18T10:51:38;7.93;;;2.97;;
8871;SDS011;4472;52.092;9.820;2022-12-18T10:54:27;4.33;;;3.27;;
8871;SDS011;4472;52.092;9.820;2022-12-18T10:57:17;3.93;;;2.80;;
8871;SDS011;4472;52.092;9.820;2022-12-18T11:00:21;3.10;;;2.73;;
8871;SDS011;4472;52.092;9.820;2022-12-18T11:03:28;3.50;;;2.90;;
8871;SDS011;4472;52.092;9.820;2022-12-18T11:06:17;4.77;;;2.97;;
8871;SDS011;4472;52.092;9.820;2022-12-18T11:09:06;4.23;;;3.50;;
8871;SDS011;4472;52.092;9.820;2022-12-18T11:12:18;4.30;;;3.70;;
8871;SDS011;4472;52.092;9.820;2022-12-18T11:15:06;5.30;;;3.60;;
8871;SDS011;4472;52.092;9.820;2022-12-18T11:17:53;4.37;;;2.93;;
8871;SDS011;4472;52.092;9.820;2022-12-18T11:20:41;4.07;;;3.00;;
8871;SDS011;4472;52.092;9.820;2022-12-18T11:23:30;8.03;;;3.67;;
8871;SDS011;4472;52.092;9.820;2022-12-18T11:26:17;4.67;;;3.47;;
8871;SDS011;4472;52.092;9.820;2022-12-18T11:29:09;3.70;;;2.87;;
8871;SDS011;4472;52.092;9.820;2022-12-18T11:32:12;8.37;;;4.13;;
8871;SDS011;4472;52.092;9.820;2022-12-18T11:35:11;12.73;;;5.17;;
8871;SDS011;4472;52.092;9.820;2022-12-18T11:38:02;8.13;;;3.63;;
8871;SDS011;4472;52.092;9.820;2022-12-18T11:40:53;5.30;;;3.63;;
8871;SDS011;4472;52.092;9.820;2022-12-18T11:43:43;5.10;;;2.60;;
8871;SDS011;4472;52.092;9.820;2022-12-18T11:46:34;3.63;;;2.80;;
8871;SDS011;4472;52.092;9.820;2022-12-18T11:49:24;3.83;;;3.00;;
8871;SDS011;4472;52.092;9.820;2022-12-18T11:52:15;3.47;;;3.00;;
8871;SDS011;4472;52.092;9.820;2022-12-18T11:55:05;5.53;;;2.93;;
8871;SDS011;4472;52.092;9.820;2022-12-18T11:57:58;3.93;;;3.10;;
8871;SDS011;4472;52.092;9.820;2022-12-18T12:00:49;6.03;;;3.10;;
8871;SDS011;4472;52.092;9.820;2022-12-18T12:03:43;4.60;;;3.10;;
8871;SDS011;4472;52.092;9.820;2022-12-18T12:06:35;4.57;;;3.33;;
8871;SDS011;4472;52.092;9.820;2022-12-18T12:09:29;5.07;;;3.40;;
8871;SDS011;4472;52.092;9.820;2022-12-18T12:12:23;4.77;;;2.83;;
8871;SDS011;4472;52.092;9.820;2022-12-18T12:15:16;5.80;;;3.37;;
8871;SDS011;4472;52.092;9.820;2022-12-18T12:18:07;5.30;;;3.30;;
8871;SDS011;4472;52.092;9.820;2022-12-18T12:20:58;5.40;;;3.50;;
8871;SDS011;4472;52.092;9.820;2022-12-18T12:23:51;6.07;;;3.60;;
8871;SDS011;4472;52.092;9.820;2022-12-18T12:26:42;6.13;;;3.53;;
8871;SDS011;4472;52.092;9.820;2022-12-18T12:29:36;4.13;;;3.70;;
8871;SDS011;4472;52.092;9.820;2022-12-18T12:32:27;5.83;;;3.93;;
8871;SDS011;4472;52.092;9.820;2022-12-18T12:35:22;6.43;;;3.70;;
8871;SDS011;4472;52.092;9.820;2022-12-18T12:38:13;4.73;;;3.83;;
8871;SDS011;4472;52.092;9.820;2022-12-18T12:41:02;4.60;;;4.10;;
8871;SDS011;4472;52.092;9.820;2022-12-18T12:43:50;6.00;;;4.43;;
8871;SDS011;4472;52.092;9.820;2022-12-18T12:46:37;5.80;;;4.50;;
8871;SDS011;4472;52.092;9.820;2022-12-18T12:49:27;7.27;;;4.30;;
8871;SDS011;4472;52.092;9.820;2022-12-18T12:52:17;9.60;;;5.00;;
8871;SDS011;4472;52.092;9.820;2022-12-18T12:55:11;6.43;;;4.57;;
8871;SDS011;4472;52.092;9.820;2022-12-18T12:58:03;6.00;;;3.90;;
8871;SDS011;4472;52.092;9.820;2022-12-18T13:00:53;5.17;;;4.00;;
8871;SDS011;4472;52.092;9.820;2022-12-18T13:03:50;5.33;;;3.90;;
8871;SDS011;4472;52.092;9.820;2022-12-18T13:06:41;6.67;;;4.00;;
8871;SDS011;4472;52.092;9.820;2022-12-18T13:09:30;6.33;;;4.00;;
8871;SDS011;4472;52.092;9.820;2022-12-18T13:12:19;6.13;;;4.13;;
8871;SDS011;4472;52.092;9.820;2022-12-18T13:15:26;4.80;;;3.73;;
8871;SDS011;4472;52.092;9.820;2022-12-18T13:18:18;4.10;;;3.00;;
8871;SDS011;4472;52.092;9.820;2022-12-18T13:21:08;6.83;;;3.90;;
8871;SDS011;4472;52.092;9.820;2022-12-18T13:24:08;5.23;;;3.93;;
8871;SDS011;4472;52.092;9.820;2022-12-18T13:27:02;7.40;;;3.30;;
8871;SDS011;4472;52.092;9.820;2022-12-18T13:33:37;4.73;;;3.00;;
8871;SDS011;4472;52.092;9.820;2022-12-18T13:36:27;3.37;;;2.53;;
8871;SDS011;4472;52.092;9.820;2022-12-18T13:39:21;3.77;;;2.70;;
8871;SDS011;4472;52.092;9.820;2022-12-18T13:45:44;7.17;;;3.63;;
8871;SDS011;4472;52.092;9.820;2022-12-18T13:48:33;4.40;;;3.00;;
8871;SDS011;4472;52.092;9.820;2022-12-18T13:51:22;5.80;;;3.33;;
8871;SDS011;4472;52.092;9.820;2022-12-18T13:54:13;4.17;;;2.50;;
8871;SDS011;4472;52.092;9.820;2022-12-18T13:57:05;4.83;;;2.50;;
8871;SDS011;4472;52.092;9.820;2022-12-18T13:59:53;3.33;;;2.70;;
8871;SDS011;4472;52.092;9.820;2022-12-18T14:02:41;3.07;;;2.40;;
8871;SDS011;4472;52.092;9.820;2022-12-18T14:05:32;3.30;;;2.80;;
8871;SDS011;4472;52.092;9.820;2022-12-18T14:08:32;4.03;;;3.30;;
8871;SDS011;4472;52.092;9.820;2022-12-18T14:11:20;4.53;;;3.57;;
8871;SDS011;4472;52.092;9.820;2022-12-18T14:14:09;7.03;;;4.10;;
8871;SDS011;4472;52.092;9.820;2022-12-18T14:16:56;6.17;;;3.50;;
8871;SDS011;4472;52.092;9.820;2022-12-18T14:19:44;6.80;;;4.50;;
8871;SDS011;4472;52.092;9.820;2022-12-18T14:22:32;7.07;;;4.53;;
8871;SDS011;4472;52.092;9.820;2022-12-18T14:25:22;5.80;;;3.70;;
8871;SDS011;4472;52.092;9.820;2022-12-18T14:28:11;4.93;;;3.20;;
8871;SDS011;4472;52.092;9.820;2022-12-18T14:31:00;3.23;;;2.93;;
8871;SDS011;4472;52.092;9.820;2022-12-18T14:33:48;4.33;;;3.30;;
8871;SDS011;4472;52.092;9.820;2022-12-18T14:36:35;7.97;;;3.60;;
8871;SDS011;4472;52.092;9.820;2022-12-18T14:39:25;6.70;;;4.00;;
8871;SDS011;4472;52.092;9.820;2022-12-18T14:42:14;4.87;;;3.47;;
8871;SDS011;4472;52.092;9.820;2022-12-18T14:48:07;10.50;;;5.43;;
8871;SDS011;4472;52.092;9.820;2022-12-18T14:50:56;8.13;;;4.67;;
8871;SDS011;4472;52.092;9.820;2022-12-18T14:53:45;10.07;;;5.63;;
8871;SDS011;4472;52.092;9.820;2022-12-18T14:56:33;5.50;;;3.70;;
8871;SDS011;4472;52.092;9.820;2022-12-18T14:59:23;7.43;;;3.63;;
8871;SDS011;4472;52.092;9.820;2022-12-18T15:02:13;5.10;;;3.40;;
8871;SDS011;4472;52.092;9.820;2022-12-18T15:05:03;3.77;;;3.13;;
8871;SDS011;4472;52.092;9.820;2022-12-18T15:07:52;5.73;;;3.90;;
8871;SDS011;4472;52.092;9.820;2022-12-18T15:10:45;7.17;;;4.30;;
8871;SDS011;4472;52.092;9.820;2022-12-18T15:13:33;9.10;;;4.40;;
8871;SDS011;4472;52.092;9.820;2022-12-18T15:16:22;4.43;;;3.30;;
8871;SDS011;4472;52.092;9.820;2022-12-18T15:19:09;9.53;;;5.57;;
8871;SDS011;4472;52.092;9.820;2022-12-18T15:21:57;10.83;;;6.27;;
8871;SDS011;4472;52.092;9.820;2022-12-18T15:24:44;5.57;;;3.73;;
8871;SDS011;4472;52.092;9.820;2022-12-18T15:27:33;5.60;;;3.87;;
8871;SDS011;4472;52.092;9.820;2022-12-18T15:30:23;3.33;;;3.03;;
8871;SDS011;4472;52.092;9.820;2022-12-18T15:33:22;4.57;;;3.10;;
8871;SDS011;4472;52.092;9.820;2022-12-18T15:36:11;5.53;;;3.40;;
8871;SDS011;4472;52.092;9.820;2022-12-18T15:38:59;4.77;;;3.30;;
8871;SDS011;4472;52.092;9.820;2022-12-18T15:41:47;6.07;;;4.50;;
8871;SDS011;4472;52.092;9.820;2022-12-18T15:44:52;5.57;;;3.73;;
8871;SDS011;4472;52.092;9.820;2022-12-18T15:47:39;6.33;;;4.07;;
8871;SDS011;4472;52.092;9.820;2022-12-18T15:50:28;7.47;;;4.40;;
8871;SDS011;4472;52.092;9.820;2022-12-18T15:53:16;7.53;;;4.10;;
8871;SDS011;4472;52.092;9.820;2022-12-18T15:56:04;6.60;;;4.13;;
8871;SDS011;4472;52.092;9.820;2022-12-18T15:59:10;4.97;;;3.57;;
8871;SDS011;4472;52.092;9.820;2022-12-18T16:01:58;7.60;;;4.23;;
8871;SDS011;4472;52.092;9.820;2022-12-18T16:04:46;5.73;;;3.73;;
8871;SDS011;4472;52.092;9.820;2022-12-18T16:10:59;8.67;;;4.37;;
8871;SDS011;4472;52.092;9.820;2022-12-18T16:13:47;5.00;;;3.77;;
8871;SDS011;4472;52.092;9.820;2022-12-18T16:16:34;5.33;;;4.53;;
8871;SDS011;4472;52.092;9.820;2022-12-18T16:19:22;6.20;;;4.60;;
8871;SDS011;4472;52.092;9.820;2022-12-18T16:22:15;5.97;;;4.83;;
8871;SDS011;4472;52.092;9.820;2022-12-18T16:25:05;5.13;;;3.97;;
8871;SDS011;4472;52.092;9.820;2022-12-18T16:27:54;7.17;;;4.60;;
8871;SDS011;4472;52.092;9.820;2022-12-18T16:30:42;6.00;;;4.10;;
8871;SDS011;4472;52.092;9.820;2022-12-18T16:33:30;4.77;;;3.77;;
8871;SDS011;4472;52.092;9.820;2022-12-18T16:36:17;8.73;;;5.30;;
8871;SDS011;4472;52.092;9.820;2022-12-18T16:39:05;9.23;;;4.97;;
8871;SDS011;4472;52.092;9.820;2022-12-18T16:41:52;6.03;;;4.33;;
8871;SDS011;4472;52.092;9.820;2022-12-18T16:44:41;6.60;;;4.37;;
8871;SDS011;4472;52.092;9.820;2022-12-18T16:47:28;10.13;;;7.53;;
8871;SDS011;4472;52.092;9.820;2022-12-18T16:50:16;11.77;;;6.33;;
8871;SDS011;4472;52.092;9.820;2022-12-18T16:53:03;13.03;;;8.10;;
8871;SDS011;4472;52.092;9.820;2022-12-18T16:55:53;11.33;;;7.90;;
8871;SDS011;4472;52.092;9.820;2022-12-18T16:58:41;9.13;;;6.33;;
8871;SDS011;4472;52.092;9.820;2022-12-18T17:01:30;8.87;;;4.50;;
8871;SDS011;4472;52.092;9.820;2022-12-18T17:04:18;12.50;;;6.87;;
8871;SDS011;4472;52.092;9.820;2022-12-18T17:07:06;7.70;;;4.63;;
8871;SDS011;4472;52.092;9.820;2022-12-18T17:09:54;8.57;;;5.77;;
8871;SDS011;4472;52.092;9.820;2022-12-18T17:12:41;7.17;;;4.70;;
8871;SDS011;4472;52.092;9.820;2022-12-18T17:15:28;9.70;;;4.57;;
8871;SDS011;4472;52.092;9.820;2022-12-18T17:18:17;7.83;;;4.93;;
8871;SDS011;4472;52.092;9.820;2022-12-18T17:21:05;7.03;;;4.70;;
8871;SDS011;4472;52.092;9.820;2022-12-18T17:23:53;8.13;;;4.57;;
8871;SDS011;4472;52.092;9.820;2022-12-18T17:26:41;8.80;;;4.20;;
8871;SDS011;4472;52.092;9.820;2022-12-18T17:29:29;7.27;;;4.33;;
8871;SDS011;4472;52.092;9.820;2022-12-18T17:32:16;9.33;;;5.70;;
8871;SDS011;4472;52.092;9.820;2022-12-18T17:35:06;6.83;;;4.60;;
8871;SDS011;4472;52.092;9.820;2022-12-18T17:37:53;5.97;;;4.23;;